sensor_id;sensor_type;location;lat;lon;timestamp;P1;durP1;ratioP1;P2;durP2;ratioP2
37323;SDS011;23205;49.986;18.950;2022-08-26T00:00:53;42.70;;;19.23;;
37323;SDS011;23205;49.986;18.950;2022-08-26T00:05:54;38.97;;;18.08;;
37323;SDS011;23205;49.986;18.950;2022-08-26T00:10:55;39.88;;;17.88;;
37323;SDS011;23205;49.986;18.950;2022-08-26T00:15:56;39.22;;;16.88;;
37323;SDS011;23205;49.986;18.950;2022-08-26T00:20:57;38.35;;;18.25;;
37323;SDS011;23205;49.986;18.950;2022-08-26T00:25:58;36.55;;;16.95;;
37323;SDS011;23205;49.986;18.950;2022-08-26T00:30:59;35.90;;;18.58;;
37323;SDS011;23205;49.986;18.950;2022-08-26T00:36:00;43.22;;;18.80;;
37323;SDS011;23205;49.986;18.950;2022-08-26T00:41:01;38.15;;;19.23;;
37323;SDS011;23205;49.986;18.950;2022-08-26T00:46:07;40.58;;;19.25;;
37323;SDS011;23205;49.986;18.950;2022-08-26T00:51:14;33.92;;;18.30;;
37323;SDS011;23205;49.986;18.950;2022-08-26T00:56:29;36.80;;;17.83;;
37323;SDS011;23205;49.986;18.950;2022-08-26T01:01:41;36.33;;;18.55;;
37323;SDS011;23205;49.986;18.950;2022-08-26T01:06:43;33.95;;;18.60;;
37323;SDS011;23205;49.986;18.950;2022-08-26T01:11:44;42.67;;;18.92;;
37323;SDS011;23205;49.986;18.950;2022-08-26T01:16:47;41.30;;;19.23;;
37323;SDS011;23205;49.986;18.950;2022-08-26T01:21:54;39.45;;;18.00;;
37323;SDS011;23205;49.986;18.950;2022-08-26T01:27:00;42.73;;;19.23;;
37323;SDS011;23205;49.986;18.950;2022-08-26T01:32:07;40.22;;;18.20;;
37323;SDS011;23205;49.986;18.950;2022-08-26T01:37:12;44.80;;;20.27;;
37323;SDS011;23205;49.986;18.950;2022-08-26T01:42:19;36.33;;;20.42;;
37323;SDS011;23205;49.986;18.950;2022-08-26T01:47:22;38.92;;;19.25;;
37323;SDS011;23205;49.986;18.950;2022-08-26T01:52:27;36.45;;;18.23;;
37323;SDS011;23205;49.986;18.950;2022-08-26T01:57:30;40.63;;;18.63;;
37323;SDS011;23205;49.986;18.950;2022-08-26T02:02:31;38.10;;;18.90;;
37323;SDS011;23205;49.986;18.950;2022-08-26T02:07:32;42.53;;;20.38;;
37323;SDS011;23205;49.986;18.950;2022-08-26T02:12:33;43.10;;;19.02;;
37323;SDS011;23205;49.986;18.950;2022-08-26T02:17:39;32.70;;;17.55;;
37323;SDS011;23205;49.986;18.950;2022-08-26T02:22:43;31.05;;;16.85;;
37323;SDS011;23205;49.986;18.950;2022-08-26T02:27:45;32.92;;;17.30;;
37323;SDS011;23205;49.986;18.950;2022-08-26T02:32:47;31.73;;;17.67;;
37323;SDS011;23205;49.986;18.950;2022-08-26T02:37:48;40.35;;;17.73;;
37323;SDS011;23205;49.986;18.950;2022-08-26T02:42:51;40.28;;;17.90;;
37323;SDS011;23205;49.986;18.950;2022-08-26T02:47:52;40.15;;;17.88;;
37323;SDS011;23205;49.986;18.950;2022-08-26T02:52:54;35.63;;;18.23;;
37323;SDS011;23205;49.986;18.950;2022-08-26T02:57:55;43.38;;;23.23;;
37323;SDS011;23205;49.986;18.950;2022-08-26T03:02:57;42.80;;;23.10;;
37323;SDS011;23205;49.986;18.950;2022-08-26T03:07:59;49.80;;;29.73;;
37323;SDS011;23205;49.986;18.950;2022-08-26T03:13:00;56.42;;;33.50;;
37323;SDS011;23205;49.986;18.950;2022-08-26T03:18:01;37.83;;;20.75;;
37323;SDS011;23205;49.986;18.950;2022-08-26T03:23:01;43.03;;;21.23;;
37323;SDS011;23205;49.986;18.950;2022-08-26T03:28:02;44.70;;;21.13;;
37323;SDS011;23205;49.986;18.950;2022-08-26T03:33:03;41.05;;;20.48;;
37323;SDS011;23205;49.986;18.950;2022-08-26T03:38:05;38.95;;;20.63;;
37323;SDS011;23205;49.986;18.950;2022-08-26T03:43:08;45.92;;;23.13;;
37323;SDS011;23205;49.986;18.950;2022-08-26T03:48:09;42.25;;;20.33;;
37323;SDS011;23205;49.986;18.950;2022-08-26T03:53:10;40.53;;;21.13;;
37323;SDS011;23205;49.986;18.950;2022-08-26T03:58:11;37.22;;;18.52;;
37323;SDS011;23205;49.986;18.950;2022-08-26T04:03:12;32.33;;;17.60;;
37323;SDS011;23205;49.986;18.950;2022-08-26T04:08:33;32.60;;;18.30;;
37323;SDS011;23205;49.986;18.950;2022-08-26T04:13:34;32.45;;;19.17;;
37323;SDS011;23205;49.986;18.950;2022-08-26T04:18:35;33.22;;;18.08;;
37323;SDS011;23205;49.986;18.950;2022-08-26T04:23:37;31.65;;;17.55;;
37323;SDS011;23205;49.986;18.950;2022-08-26T04:28:38;35.05;;;18.45;;
37323;SDS011;23205;49.986;18.950;2022-08-26T04:33:39;39.22;;;22.45;;
37323;SDS011;23205;49.986;18.950;2022-08-26T04:38:40;36.75;;;20.27;;
37323;SDS011;23205;49.986;18.950;2022-08-26T04:43:41;33.45;;;18.63;;
37323;SDS011;23205;49.986;18.950;2022-08-26T04:48:42;33.90;;;18.63;;
37323;SDS011;23205;49.986;18.950;2022-08-26T04:53:43;31.27;;;17.48;;
37323;SDS011;23205;49.986;18.950;2022-08-26T04:58:45;32.05;;;17.73;;
37323;SDS011;23205;49.986;18.950;2022-08-26T05:03:46;32.58;;;17.38;;
37323;SDS011;23205;49.986;18.950;2022-08-26T05:08:48;34.22;;;16.35;;
37323;SDS011;23205;49.986;18.950;2022-08-26T05:13:49;29.88;;;15.23;;
37323;SDS011;23205;49.986;18.950;2022-08-26T05:18:50;26.10;;;15.13;;
37323;SDS011;23205;49.986;18.950;2022-08-26T05:23:53;32.25;;;14.65;;
37323;SDS011;23205;49.986;18.950;2022-08-26T05:28:54;30.90;;;14.30;;
37323;SDS011;23205;49.986;18.950;2022-08-26T05:33:56;26.35;;;13.70;;
37323;SDS011;23205;49.986;18.950;2022-08-26T05:38:58;23.63;;;12.45;;
37323;SDS011;23205;49.986;18.950;2022-08-26T05:44:00;25.48;;;12.27;;
37323;SDS011;23205;49.986;18.950;2022-08-26T05:49:02;26.67;;;13.45;;
37323;SDS011;23205;49.986;18.950;2022-08-26T05:54:03;28.17;;;13.50;;
37323;SDS011;23205;49.986;18.950;2022-08-26T05:59:06;27.20;;;11.82;;
37323;SDS011;23205;49.986;18.950;2022-08-26T06:04:11;26.73;;;11.80;;
37323;SDS011;23205;49.986;18.950;2022-08-26T06:09:12;25.20;;;12.95;;
37323;SDS011;23205;49.986;18.950;2022-08-26T06:14:13;26.67;;;11.73;;
37323;SDS011;23205;49.986;18.950;2022-08-26T06:19:15;22.73;;;12.10;;
37323;SDS011;23205;49.986;18.950;2022-08-26T06:24:16;26.65;;;11.65;;
37323;SDS011;23205;49.986;18.950;2022-08-26T06:29:35;29.25;;;11.38;;
37323;SDS011;23205;49.986;18.950;2022-08-26T06:34:36;21.50;;;10.48;;
37323;SDS011;23205;49.986;18.950;2022-08-26T06:39:37;21.60;;;9.77;;
37323;SDS011;23205;49.986;18.950;2022-08-26T06:44:38;20.77;;;10.32;;
37323;SDS011;23205;49.986;18.950;2022-08-26T06:49:39;19.45;;;9.48;;
37323;SDS011;23205;49.986;18.950;2022-08-26T06:54:40;18.77;;;10.02;;
37323;SDS011;23205;49.986;18.950;2022-08-26T06:59:42;20.75;;;9.02;;
37323;SDS011;23205;49.986;18.950;2022-08-26T07:04:43;20.52;;;8.23;;
37323;SDS011;23205;49.986;18.950;2022-08-26T07:09:43;15.70;;;7.88;;
37323;SDS011;23205;49.986;18.950;2022-08-26T07:14:45;24.58;;;9.00;;
37323;SDS011;23205;49.986;18.950;2022-08-26T07:19:46;21.60;;;7.93;;
37323;SDS011;23205;49.986;18.950;2022-08-26T07:24:48;17.55;;;7.30;;
37323;SDS011;23205;49.986;18.950;2022-08-26T07:29:49;22.45;;;11.85;;
37323;SDS011;23205;49.986;18.950;2022-08-26T07:34:49;16.45;;;7.50;;
37323;SDS011;23205;49.986;18.950;2022-08-26T07:39:50;18.10;;;6.93;;
37323;SDS011;23205;49.986;18.950;2022-08-26T07:44:51;20.95;;;7.72;;
37323;SDS011;23205;49.986;18.950;2022-08-26T07:49:53;16.60;;;6.18;;
37323;SDS011;23205;49.986;18.950;2022-08-26T07:54:56;12.07;;;6.13;;
37323;SDS011;23205;49.986;18.950;2022-08-26T07:59:58;17.50;;;6.60;;
37323;SDS011;23205;49.986;18.950;2022-08-26T08:04:59;14.98;;;5.70;;
37323;SDS011;23205;49.986;18.950;2022-08-26T08:10:00;13.13;;;6.20;;
37323;SDS011;23205;49.986;18.950;2022-08-26T08:15:01;13.68;;;5.78;;
37323;SDS011;23205;49.986;18.950;2022-08-26T08:20:03;15.45;;;5.45;;
37323;SDS011;23205;49.986;18.950;2022-08-26T08:25:05;13.55;;;5.30;;
37323;SDS011;23205;49.986;18.950;2022-08-26T08:30:06;16.52;;;5.03;;
37323;SDS011;23205;49.986;18.950;2022-08-26T08:35:08;15.88;;;5.00;;
37323;SDS011;23205;49.986;18.950;2022-08-26T08:40:11;13.15;;;5.80;;
37323;SDS011;23205;49.986;18.950;2022-08-26T08:50:43;10.35;;;4.65;;
37323;SDS011;23205;49.986;18.950;2022-08-26T08:55:54;12.48;;;4.70;;
37323;SDS011;23205;49.986;18.950;2022-08-26T09:00:59;12.05;;;4.05;;
37323;SDS011;23205;49.986;18.950;2022-08-26T09:06:03;14.00;;;4.32;;
37323;SDS011;23205;49.986;18.950;2022-08-26T09:11:17;12.93;;;5.03;;
37323;SDS011;23205;49.986;18.950;2022-08-26T09:21:57;9.85;;;3.95;;
37323;SDS011;23205;49.986;18.950;2022-08-26T09:26:59;12.90;;;4.13;;
37323;SDS011;23205;49.986;18.950;2022-08-26T09:32:17;13.57;;;4.65;;
37323;SDS011;23205;49.986;18.950;2022-08-26T09:42:36;17.45;;;4.53;;
37323;SDS011;23205;49.986;18.950;2022-08-26T09:47:38;10.65;;;4.38;;
37323;SDS011;23205;49.986;18.950;2022-08-26T09:53:34;10.43;;;3.47;;
37323;SDS011;23205;49.986;18.950;2022-08-26T10:03:31;9.60;;;3.63;;
37323;SDS011;23205;49.986;18.950;2022-08-26T10:08:36;10.80;;;4.25;;
37323;SDS011;23205;49.986;18.950;2022-08-26T10:13:44;11.27;;;4.03;;
37323;SDS011;23205;49.986;18.950;2022-08-26T10:19:21;12.52;;;4.15;;
37323;SDS011;23205;49.986;18.950;2022-08-26T10:24:19;14.93;;;4.45;;
37323;SDS011;23205;49.986;18.950;2022-08-26T10:29:30;11.50;;;4.57;;
37323;SDS011;23205;49.986;18.950;2022-08-26T10:34:39;12.65;;;3.78;;
37323;SDS011;23205;49.986;18.950;2022-08-26T10:39:48;12.20;;;4.47;;
37323;SDS011;23205;49.986;18.950;2022-08-26T10:44:51;9.25;;;3.80;;
37323;SDS011;23205;49.986;18.950;2022-08-26T10:49:57;12.07;;;3.03;;
37323;SDS011;23205;49.986;18.950;2022-08-26T10:55:00;8.75;;;3.65;;
37323;SDS011;23205;49.986;18.950;2022-08-26T11:00:27;13.45;;;4.13;;
37323;SDS011;23205;49.986;18.950;2022-08-26T11:16:53;9.18;;;3.25;;
37323;SDS011;23205;49.986;18.950;2022-08-26T11:22:02;9.88;;;3.22;;
37323;SDS011;23205;49.986;18.950;2022-08-26T11:37:35;14.67;;;3.17;;
37323;SDS011;23205;49.986;18.950;2022-08-26T11:43:06;9.10;;;3.47;;
37323;SDS011;23205;49.986;18.950;2022-08-26T11:48:18;7.68;;;3.28;;
37323;SDS011;23205;49.986;18.950;2022-08-26T11:53:29;8.10;;;3.25;;
37323;SDS011;23205;49.986;18.950;2022-08-26T11:58:32;9.13;;;3.25;;
37323;SDS011;23205;49.986;18.950;2022-08-26T12:08:41;10.63;;;3.88;;
37323;SDS011;23205;49.986;18.950;2022-08-26T12:13:51;9.05;;;3.63;;
37323;SDS011;23205;49.986;18.950;2022-08-26T12:18:57;9.82;;;3.40;;
37323;SDS011;23205;49.986;18.950;2022-08-26T12:23:58;8.02;;;3.35;;
37323;SDS011;23205;49.986;18.950;2022-08-26T12:29:02;8.98;;;3.05;;
37323;SDS011;23205;49.986;18.950;2022-08-26T12:34:04;11.23;;;3.53;;
37323;SDS011;23205;49.986;18.950;2022-08-26T12:39:13;10.30;;;3.38;;
37323;SDS011;23205;49.986;18.950;2022-08-26T12:44:35;15.27;;;4.13;;
37323;SDS011;23205;49.986;18.950;2022-08-26T12:49:43;8.20;;;3.30;;
37323;SDS011;23205;49.986;18.950;2022-08-26T12:54:50;9.60;;;3.60;;
37323;SDS011;23205;49.986;18.950;2022-08-26T13:05:32;10.98;;;4.10;;
37323;SDS011;23205;49.986;18.950;2022-08-26T13:10:35;10.73;;;4.05;;
37323;SDS011;23205;49.986;18.950;2022-08-26T13:15:38;10.63;;;3.97;;
37323;SDS011;23205;49.986;18.950;2022-08-26T13:20:40;8.15;;;3.42;;
37323;SDS011;23205;49.986;18.950;2022-08-26T13:25:43;11.70;;;3.63;;
37323;SDS011;23205;49.986;18.950;2022-08-26T13:30:45;6.38;;;3.85;;
37323;SDS011;23205;49.986;18.950;2022-08-26T13:35:47;10.13;;;3.45;;
37323;SDS011;23205;49.986;18.950;2022-08-26T13:40:48;9.35;;;3.53;;
37323;SDS011;23205;49.986;18.950;2022-08-26T13:45:49;9.93;;;3.25;;
37323;SDS011;23205;49.986;18.950;2022-08-26T13:50:50;11.25;;;3.22;;
37323;SDS011;23205;49.986;18.950;2022-08-26T13:55:52;12.38;;;3.70;;
37323;SDS011;23205;49.986;18.950;2022-08-26T14:00:54;9.20;;;3.50;;
37323;SDS011;23205;49.986;18.950;2022-08-26T14:05:56;8.63;;;3.15;;
37323;SDS011;23205;49.986;18.950;2022-08-26T14:10:57;7.85;;;3.35;;
37323;SDS011;23205;49.986;18.950;2022-08-26T14:15:58;11.77;;;3.53;;
37323;SDS011;23205;49.986;18.950;2022-08-26T14:21:03;12.30;;;3.28;;
37323;SDS011;23205;49.986;18.950;2022-08-26T14:26:06;9.38;;;3.38;;
37323;SDS011;23205;49.986;18.950;2022-08-26T14:31:07;9.45;;;3.15;;
37323;SDS011;23205;49.986;18.950;2022-08-26T14:36:08;10.18;;;3.28;;
37323;SDS011;23205;49.986;18.950;2022-08-26T14:41:28;10.85;;;2.75;;
37323;SDS011;23205;49.986;18.950;2022-08-26T14:46:30;10.32;;;2.80;;
37323;SDS011;23205;49.986;18.950;2022-08-26T14:51:33;14.07;;;3.50;;
37323;SDS011;23205;49.986;18.950;2022-08-26T14:56:34;10.15;;;3.20;;
37323;SDS011;23205;49.986;18.950;2022-08-26T15:01:37;10.90;;;3.05;;
37323;SDS011;23205;49.986;18.950;2022-08-26T15:06:37;6.80;;;2.55;;
37323;SDS011;23205;49.986;18.950;2022-08-26T15:11:39;9.02;;;2.67;;
37323;SDS011;23205;49.986;18.950;2022-08-26T15:16:40;8.27;;;2.83;;
37323;SDS011;23205;49.986;18.950;2022-08-26T15:21:40;8.65;;;2.67;;
37323;SDS011;23205;49.986;18.950;2022-08-26T15:26:42;9.25;;;2.45;;
37323;SDS011;23205;49.986;18.950;2022-08-26T15:31:44;8.95;;;3.35;;
37323;SDS011;23205;49.986;18.950;2022-08-26T15:36:45;10.43;;;3.20;;
37323;SDS011;23205;49.986;18.950;2022-08-26T15:41:46;13.27;;;2.60;;
37323;SDS011;23205;49.986;18.950;2022-08-26T15:46:48;12.07;;;2.47;;
37323;SDS011;23205;49.986;18.950;2022-08-26T15:51:49;10.02;;;2.50;;
37323;SDS011;23205;49.986;18.950;2022-08-26T15:56:50;13.13;;;3.67;;
37323;SDS011;23205;49.986;18.950;2022-08-26T16:01:52;12.30;;;2.38;;
37323;SDS011;23205;49.986;18.950;2022-08-26T16:06:53;12.18;;;2.50;;
37323;SDS011;23205;49.986;18.950;2022-08-26T16:11:59;9.18;;;2.70;;
37323;SDS011;23205;49.986;18.950;2022-08-26T16:17:00;8.48;;;2.35;;
37323;SDS011;23205;49.986;18.950;2022-08-26T16:22:01;14.57;;;3.15;;
37323;SDS011;23205;49.986;18.950;2022-08-26T16:27:02;5.95;;;2.55;;
37323;SDS011;23205;49.986;18.950;2022-08-26T16:32:06;7.20;;;2.40;;
37323;SDS011;23205;49.986;18.950;2022-08-26T16:37:22;8.73;;;3.43;;
37323;SDS011;23205;49.986;18.950;2022-08-26T16:42:23;6.68;;;3.28;;
37323;SDS011;23205;49.986;18.950;2022-08-26T16:47:24;9.20;;;3.20;;
37323;SDS011;23205;49.986;18.950;2022-08-26T16:52:25;9.48;;;3.53;;
37323;SDS011;23205;49.986;18.950;2022-08-26T16:57:27;11.10;;;3.63;;
37323;SDS011;23205;49.986;18.950;2022-08-26T17:02:31;10.40;;;4.00;;
37323;SDS011;23205;49.986;18.950;2022-08-26T17:07:32;12.63;;;4.50;;
37323;SDS011;23205;49.986;18.950;2022-08-26T17:12:35;12.10;;;4.25;;
37323;SDS011;23205;49.986;18.950;2022-08-26T17:17:36;11.32;;;4.90;;
37323;SDS011;23205;49.986;18.950;2022-08-26T17:22:40;14.82;;;4.47;;
37323;SDS011;23205;49.986;18.950;2022-08-26T17:27:42;10.15;;;4.22;;
37323;SDS011;23205;49.986;18.950;2022-08-26T17:32:44;16.35;;;4.93;;
37323;SDS011;23205;49.986;18.950;2022-08-26T17:37:45;12.15;;;3.85;;
37323;SDS011;23205;49.986;18.950;2022-08-26T17:42:47;11.63;;;4.65;;
37323;SDS011;23205;49.986;18.950;2022-08-26T17:47:48;14.18;;;3.72;;
37323;SDS011;23205;49.986;18.950;2022-08-26T17:52:48;13.50;;;4.28;;
37323;SDS011;23205;49.986;18.950;2022-08-26T17:57:49;18.33;;;5.53;;
37323;SDS011;23205;49.986;18.950;2022-08-26T18:02:51;16.48;;;6.90;;
37323;SDS011;23205;49.986;18.950;2022-08-26T18:07:55;16.83;;;6.88;;
37323;SDS011;23205;49.986;18.950;2022-08-26T18:12:56;19.13;;;6.93;;
37323;SDS011;23205;49.986;18.950;2022-08-26T18:17:57;25.40;;;9.70;;
37323;SDS011;23205;49.986;18.950;2022-08-26T18:22:58;41.75;;;16.15;;
37323;SDS011;23205;49.986;18.950;2022-08-26T18:27:59;104.88;;;56.03;;
37323;SDS011;23205;49.986;18.950;2022-08-26T18:33:00;75.10;;;40.50;;
37323;SDS011;23205;49.986;18.950;2022-08-26T18:38:01;38.60;;;18.42;;
37323;SDS011;23205;49.986;18.950;2022-08-26T18:43:02;24.65;;;11.95;;
37323;SDS011;23205;49.986;18.950;2022-08-26T18:48:03;32.88;;;13.80;;
37323;SDS011;23205;49.986;18.950;2022-08-26T18:53:04;30.05;;;12.35;;
37323;SDS011;23205;49.986;18.950;2022-08-26T18:58:06;24.33;;;11.75;;
37323;SDS011;23205;49.986;18.950;2022-08-26T19:03:07;22.23;;;10.30;;
37323;SDS011;23205;49.986;18.950;2022-08-26T19:08:08;24.98;;;12.18;;
37323;SDS011;23205;49.986;18.950;2022-08-26T19:13:09;35.05;;;15.65;;
37323;SDS011;23205;49.986;18.950;2022-08-26T19:18:11;33.67;;;14.63;;
37323;SDS011;23205;49.986;18.950;2022-08-26T19:23:14;23.33;;;11.70;;
37323;SDS011;23205;49.986;18.950;2022-08-26T19:28:17;18.50;;;9.20;;
37323;SDS011;23205;49.986;18.950;2022-08-26T19:33:19;22.02;;;8.88;;
37323;SDS011;23205;49.986;18.950;2022-08-26T19:38:20;16.52;;;6.85;;
37323;SDS011;23205;49.986;18.950;2022-08-26T19:43:23;19.27;;;8.20;;
37323;SDS011;23205;49.986;18.950;2022-08-26T19:48:24;15.65;;;7.75;;
37323;SDS011;23205;49.986;18.950;2022-08-26T19:53:25;17.85;;;8.95;;
37323;SDS011;23205;49.986;18.950;2022-08-26T19:58:26;22.85;;;10.02;;
37323;SDS011;23205;49.986;18.950;2022-08-26T20:03:27;17.70;;;9.52;;
37323;SDS011;23205;49.986;18.950;2022-08-26T20:08:28;21.30;;;9.15;;
37323;SDS011;23205;49.986;18.950;2022-08-26T20:13:28;20.05;;;9.25;;
37323;SDS011;23205;49.986;18.950;2022-08-26T20:18:30;16.42;;;8.07;;
37323;SDS011;23205;49.986;18.950;2022-08-26T20:23:49;20.10;;;9.63;;
37323;SDS011;23205;49.986;18.950;2022-08-26T20:28:53;27.25;;;11.65;;
37323;SDS011;23205;49.986;18.950;2022-08-26T20:33:55;23.27;;;10.23;;
37323;SDS011;23205;49.986;18.950;2022-08-26T20:38:56;19.13;;;9.48;;
37323;SDS011;23205;49.986;18.950;2022-08-26T20:43:58;19.63;;;9.30;;
37323;SDS011;23205;49.986;18.950;2022-08-26T20:48:59;23.38;;;10.23;;
37323;SDS011;23205;49.986;18.950;2022-08-26T20:54:00;21.00;;;10.48;;
37323;SDS011;23205;49.986;18.950;2022-08-26T20:59:01;24.80;;;10.57;;
37323;SDS011;23205;49.986;18.950;2022-08-26T21:04:05;22.40;;;11.02;;
37323;SDS011;23205;49.986;18.950;2022-08-26T21:09:09;25.42;;;11.40;;
37323;SDS011;23205;49.986;18.950;2022-08-26T21:14:12;22.58;;;10.27;;
37323;SDS011;23205;49.986;18.950;2022-08-26T21:19:14;25.35;;;11.40;;
37323;SDS011;23205;49.986;18.950;2022-08-26T21:24:17;21.08;;;10.35;;
37323;SDS011;23205;49.986;18.950;2022-08-26T21:29:18;21.77;;;10.82;;
37323;SDS011;23205;49.986;18.950;2022-08-26T21:34:21;26.30;;;11.57;;
37323;SDS011;23205;49.986;18.950;2022-08-26T21:39:22;27.73;;;11.65;;
37323;SDS011;23205;49.986;18.950;2022-08-26T21:44:22;21.42;;;9.80;;
37323;SDS011;23205;49.986;18.950;2022-08-26T21:49:23;22.92;;;10.95;;
37323;SDS011;23205;49.986;18.950;2022-08-26T21:54:25;24.42;;;11.30;;
37323;SDS011;23205;49.986;18.950;2022-08-26T21:59:26;27.58;;;10.75;;
37323;SDS011;23205;49.986;18.950;2022-08-26T22:04:26;21.60;;;11.73;;
37323;SDS011;23205;49.986;18.950;2022-08-26T22:09:28;23.98;;;9.80;;
37323;SDS011;23205;49.986;18.950;2022-08-26T22:14:32;16.80;;;9.95;;
37323;SDS011;23205;49.986;18.950;2022-08-26T22:19:34;21.55;;;9.50;;
37323;SDS011;23205;49.986;18.950;2022-08-26T22:24:35;18.60;;;10.38;;
37323;SDS011;23205;49.986;18.950;2022-08-26T22:29:36;18.92;;;10.68;;
37323;SDS011;23205;49.986;18.950;2022-08-26T22:34:37;19.73;;;10.15;;
37323;SDS011;23205;49.986;18.950;2022-08-26T22:39:38;23.48;;;11.10;;
37323;SDS011;23205;49.986;18.950;2022-08-26T22:44:39;31.20;;;14.02;;
37323;SDS011;23205;49.986;18.950;2022-08-26T22:49:40;28.48;;;12.07;;
37323;SDS011;23205;49.986;18.950;2022-08-26T22:54:41;28.27;;;12.48;;
37323;SDS011;23205;49.986;18.950;2022-08-26T22:59:42;24.38;;;11.60;;
37323;SDS011;23205;49.986;18.950;2022-08-26T23:04:43;26.83;;;12.18;;
37323;SDS011;23205;49.986;18.950;2022-08-26T23:09:44;28.02;;;12.77;;
37323;SDS011;23205;49.986;18.950;2022-08-26T23:14:45;28.98;;;13.20;;
37323;SDS011;23205;49.986;18.950;2022-08-26T23:19:47;31.52;;;13.68;;
37323;SDS011;23205;49.986;18.950;2022-08-26T23:24:48;24.45;;;12.57;;
37323;SDS011;23205;49.986;18.950;2022-08-26T23:29:49;30.48;;;12.73;;
37323;SDS011;23205;49.986;18.950;2022-08-26T23:34:50;27.48;;;12.60;;
37323;SDS011;23205;49.986;18.950;2022-08-26T23:40:07;26.13;;;12.52;;
37323;SDS011;23205;49.986;18.950;2022-08-26T23:45:17;21.88;;;11.32;;
37323;SDS011;23205;49.986;18.950;2022-08-26T23:50:20;22.85;;;12.07;;
37323;SDS011;23205;49.986;18.950;2022-08-26T23:55:49;28.48;;;12.73;;
